sensor_id;sensor_type;location;lat;lon;timestamp;temperature;humidity
57753;DHT22;43583;53.132;6.574;2023-07-30T00:01:52;14.40;99.90
57753;DHT22;43583;53.132;6.574;2023-07-30T00:04:17;14.40;99.90
57753;DHT22;43583;53.132;6.574;2023-07-30T00:06:43;14.40;99.90
57753;DHT22;43583;53.132;6.574;2023-07-30T00:09:09;14.40;99.90
57753;DHT22;43583;53.132;6.574;2023-07-30T00:11:34;14.50;99.90
57753;DHT22;43583;53.132;6.574;2023-07-30T00:14:00;14.50;99.90
57753;DHT22;43583;53.132;6.574;2023-07-30T00:16:26;14.50;99.90
57753;DHT22;43583;53.132;6.574;2023-07-30T00:18:51;14.50;99.90
57753;DHT22;43583;53.132;6.574;2023-07-30T00:21:17;14.50;99.90
57753;DHT22;43583;53.132;6.574;2023-07-30T00:23:43;14.60;99.90
57753;DHT22;43583;53.132;6.574;2023-07-30T00:26:08;14.60;99.90
57753;DHT22;43583;53.132;6.574;2023-07-30T00:28:34;14.60;99.90
57753;DHT22;43583;53.132;6.574;2023-07-30T00:30:59;14.70;99.90
57753;DHT22;43583;53.132;6.574;2023-07-30T00:33:25;14.70;99.90
57753;DHT22;43583;53.132;6.574;2023-07-30T00:35:51;14.70;99.90
57753;DHT22;43583;53.132;6.574;2023-07-30T00:38:18;14.70;99.90
57753;DHT22;43583;53.132;6.574;2023-07-30T00:40:44;14.60;99.90
57753;DHT22;43583;53.132;6.574;2023-07-30T00:43:09;14.60;99.90
57753;DHT22;43583;53.132;6.574;2023-07-30T00:45:36;14.60;99.90
57753;DHT22;43583;53.132;6.574;2023-07-30T00:48:02;14.50;99.90
57753;DHT22;43583;53.132;6.574;2023-07-30T00:50:28;14.50;99.90
57753;DHT22;43583;53.132;6.574;2023-07-30T00:52:54;14.50;99.90
57753;DHT22;43583;53.132;6.574;2023-07-30T00:55:20;14.50;99.90
57753;DHT22;43583;53.132;6.574;2023-07-30T00:57:45;14.40;99.90
57753;DHT22;43583;53.132;6.574;2023-07-30T01:00:12;14.40;99.90
57753;DHT22;43583;53.132;6.574;2023-07-30T01:02:38;14.40;99.90
57753;DHT22;43583;53.132;6.574;2023-07-30T01:05:03;14.40;99.90
57753;DHT22;43583;53.132;6.574;2023-07-30T01:07:32;14.40;99.90
57753;DHT22;43583;53.132;6.574;2023-07-30T01:09:59;14.40;99.90
57753;DHT22;43583;53.132;6.574;2023-07-30T01:12:26;14.50;99.90
57753;DHT22;43583;53.132;6.574;2023-07-30T01:14:54;14.50;99.90
57753;DHT22;43583;53.132;6.574;2023-07-30T01:17:21;14.60;99.90
57753;DHT22;43583;53.132;6.574;2023-07-30T01:19:47;14.70;99.90
57753;DHT22;43583;53.132;6.574;2023-07-30T01:22:15;14.80;99.90
57753;DHT22;43583;53.132;6.574;2023-07-30T01:24:40;14.80;99.90
57753;DHT22;43583;53.132;6.574;2023-07-30T01:27:08;14.90;99.90
57753;DHT22;43583;53.132;6.574;2023-07-30T01:29:41;14.90;99.90
57753;DHT22;43583;53.132;6.574;2023-07-30T01:32:08;15.00;99.90
57753;DHT22;43583;53.132;6.574;2023-07-30T01:34:37;15.10;99.90
57753;DHT22;43583;53.132;6.574;2023-07-30T01:37:05;15.10;99.90
57753;DHT22;43583;53.132;6.574;2023-07-30T01:39:36;15.20;99.90
57753;DHT22;43583;53.132;6.574;2023-07-30T01:42:03;15.20;99.90
57753;DHT22;43583;53.132;6.574;2023-07-30T01:44:29;15.30;99.90
57753;DHT22;43583;53.132;6.574;2023-07-30T01:46:55;15.30;99.90
57753;DHT22;43583;53.132;6.574;2023-07-30T01:49:20;15.20;99.90
57753;DHT22;43583;53.132;6.574;2023-07-30T01:51:46;15.30;99.90
57753;DHT22;43583;53.132;6.574;2023-07-30T01:54:11;15.30;99.90
57753;DHT22;43583;53.132;6.574;2023-07-30T01:56:37;15.30;99.90
57753;DHT22;43583;53.132;6.574;2023-07-30T01:59:02;15.30;99.90
57753;DHT22;43583;53.132;6.574;2023-07-30T02:01:28;15.40;99.90
57753;DHT22;43583;53.132;6.574;2023-07-30T02:03:53;15.40;99.90
57753;DHT22;43583;53.132;6.574;2023-07-30T02:06:19;15.40;99.90
57753;DHT22;43583;53.132;6.574;2023-07-30T02:08:44;15.40;99.90
57753;DHT22;43583;53.132;6.574;2023-07-30T02:11:10;15.50;99.90
57753;DHT22;43583;53.132;6.574;2023-07-30T02:13:35;15.50;99.90
57753;DHT22;43583;53.132;6.574;2023-07-30T02:16:01;15.50;99.90
57753;DHT22;43583;53.132;6.574;2023-07-30T02:18:26;15.50;99.90
57753;DHT22;43583;53.132;6.574;2023-07-30T02:20:52;15.50;99.90
57753;DHT22;43583;53.132;6.574;2023-07-30T02:23:17;15.50;99.90
57753;DHT22;43583;53.132;6.574;2023-07-30T02:25:43;15.50;99.90
57753;DHT22;43583;53.132;6.574;2023-07-30T02:28:09;15.50;99.90
57753;DHT22;43583;53.132;6.574;2023-07-30T02:30:34;15.50;99.90
57753;DHT22;43583;53.132;6.574;2023-07-30T02:33:00;15.40;99.90
57753;DHT22;43583;53.132;6.574;2023-07-30T02:35:26;15.40;99.90
57753;DHT22;43583;53.132;6.574;2023-07-30T02:37:51;15.40;99.90
57753;DHT22;43583;53.132;6.574;2023-07-30T02:40:17;15.40;99.90
57753;DHT22;43583;53.132;6.574;2023-07-30T02:42:42;15.30;99.90
57753;DHT22;43583;53.132;6.574;2023-07-30T02:45:08;15.30;99.90
57753;DHT22;43583;53.132;6.574;2023-07-30T02:47:34;15.30;99.90
57753;DHT22;43583;53.132;6.574;2023-07-30T02:49:59;15.30;99.90
57753;DHT22;43583;53.132;6.574;2023-07-30T02:52:25;15.20;99.90
57753;DHT22;43583;53.132;6.574;2023-07-30T02:54:50;15.10;99.90
57753;DHT22;43583;53.132;6.574;2023-07-30T02:57:16;15.10;99.90
57753;DHT22;43583;53.132;6.574;2023-07-30T02:59:41;15.10;99.90
57753;DHT22;43583;53.132;6.574;2023-07-30T03:02:07;15.10;99.90
57753;DHT22;43583;53.132;6.574;2023-07-30T03:04:33;15.10;99.90
57753;DHT22;43583;53.132;6.574;2023-07-30T03:06:58;15.10;99.90
57753;DHT22;43583;53.132;6.574;2023-07-30T03:09:24;15.10;99.90
57753;DHT22;43583;53.132;6.574;2023-07-30T03:11:50;15.10;99.90
57753;DHT22;43583;53.132;6.574;2023-07-30T03:14:15;15.10;99.90
57753;DHT22;43583;53.132;6.574;2023-07-30T03:16:41;15.00;99.90
57753;DHT22;43583;53.132;6.574;2023-07-30T03:19:07;15.00;99.90
57753;DHT22;43583;53.132;6.574;2023-07-30T03:21:32;15.00;99.90
57753;DHT22;43583;53.132;6.574;2023-07-30T03:23:58;15.00;99.90
57753;DHT22;43583;53.132;6.574;2023-07-30T03:26:23;15.10;99.90
57753;DHT22;43583;53.132;6.574;2023-07-30T03:28:49;15.00;99.90
57753;DHT22;43583;53.132;6.574;2023-07-30T03:31:15;15.10;99.90
57753;DHT22;43583;53.132;6.574;2023-07-30T03:33:40;15.10;99.90
57753;DHT22;43583;53.132;6.574;2023-07-30T03:36:10;15.00;99.90
57753;DHT22;43583;53.132;6.574;2023-07-30T03:38:36;15.00;99.90
57753;DHT22;43583;53.132;6.574;2023-07-30T03:41:01;15.00;99.90
57753;DHT22;43583;53.132;6.574;2023-07-30T03:43:27;15.00;99.90
57753;DHT22;43583;53.132;6.574;2023-07-30T03:45:52;15.00;99.90
57753;DHT22;43583;53.132;6.574;2023-07-30T03:48:18;14.90;99.90
57753;DHT22;43583;53.132;6.574;2023-07-30T03:50:43;14.90;99.90
57753;DHT22;43583;53.132;6.574;2023-07-30T03:53:09;14.90;99.90
57753;DHT22;43583;53.132;6.574;2023-07-30T03:55:34;14.80;99.90
57753;DHT22;43583;53.132;6.574;2023-07-30T03:58:00;14.80;99.90
57753;DHT22;43583;53.132;6.574;2023-07-30T04:00:26;14.80;99.90
57753;DHT22;43583;53.132;6.574;2023-07-30T04:02:51;14.70;99.90
57753;DHT22;43583;53.132;6.574;2023-07-30T04:05:17;14.70;99.90
57753;DHT22;43583;53.132;6.574;2023-07-30T04:07:42;14.70;99.90
57753;DHT22;43583;53.132;6.574;2023-07-30T04:10:08;14.70;99.90
57753;DHT22;43583;53.132;6.574;2023-07-30T04:12:34;14.70;99.90
57753;DHT22;43583;53.132;6.574;2023-07-30T04:14:59;14.70;99.90
57753;DHT22;43583;53.132;6.574;2023-07-30T04:17:25;14.60;99.90
57753;DHT22;43583;53.132;6.574;2023-07-30T04:19:50;14.70;99.90
57753;DHT22;43583;53.132;6.574;2023-07-30T04:22:16;14.70;99.90
57753;DHT22;43583;53.132;6.574;2023-07-30T04:24:41;14.80;99.90
57753;DHT22;43583;53.132;6.574;2023-07-30T04:27:07;14.80;99.90
57753;DHT22;43583;53.132;6.574;2023-07-30T04:29:32;14.80;99.90
57753;DHT22;43583;53.132;6.574;2023-07-30T04:31:58;14.90;99.90
57753;DHT22;43583;53.132;6.574;2023-07-30T04:34:23;14.90;99.90
57753;DHT22;43583;53.132;6.574;2023-07-30T04:36:49;15.00;99.90
57753;DHT22;43583;53.132;6.574;2023-07-30T04:39:14;15.10;99.90
57753;DHT22;43583;53.132;6.574;2023-07-30T04:41:40;15.20;99.90
57753;DHT22;43583;53.132;6.574;2023-07-30T04:44:05;15.30;99.90
57753;DHT22;43583;53.132;6.574;2023-07-30T04:46:31;15.40;99.90
57753;DHT22;43583;53.132;6.574;2023-07-30T04:48:58;15.50;99.90
57753;DHT22;43583;53.132;6.574;2023-07-30T04:51:24;15.60;99.90
57753;DHT22;43583;53.132;6.574;2023-07-30T04:53:49;15.70;99.90
57753;DHT22;43583;53.132;6.574;2023-07-30T04:56:15;15.90;99.90
57753;DHT22;43583;53.132;6.574;2023-07-30T04:58:40;16.00;99.90
57753;DHT22;43583;53.132;6.574;2023-07-30T05:01:06;16.20;99.90
57753;DHT22;43583;53.132;6.574;2023-07-30T05:03:31;16.30;99.90
57753;DHT22;43583;53.132;6.574;2023-07-30T05:05:57;16.40;99.90
57753;DHT22;43583;53.132;6.574;2023-07-30T05:08:22;16.60;99.90
57753;DHT22;43583;53.132;6.574;2023-07-30T05:10:48;16.60;99.90
57753;DHT22;43583;53.132;6.574;2023-07-30T05:13:13;16.60;99.90
57753;DHT22;43583;53.132;6.574;2023-07-30T05:15:39;16.60;99.90
57753;DHT22;43583;53.132;6.574;2023-07-30T05:18:05;16.50;99.90
57753;DHT22;43583;53.132;6.574;2023-07-30T05:20:30;16.50;99.90
57753;DHT22;43583;53.132;6.574;2023-07-30T05:22:56;16.50;99.90
57753;DHT22;43583;53.132;6.574;2023-07-30T05:25:21;16.40;99.90
57753;DHT22;43583;53.132;6.574;2023-07-30T05:27:48;16.40;99.90
57753;DHT22;43583;53.132;6.574;2023-07-30T05:30:13;16.40;99.90
57753;DHT22;43583;53.132;6.574;2023-07-30T05:32:39;16.50;99.90
57753;DHT22;43583;53.132;6.574;2023-07-30T05:35:05;16.50;99.90
57753;DHT22;43583;53.132;6.574;2023-07-30T05:37:31;16.60;99.90
57753;DHT22;43583;53.132;6.574;2023-07-30T05:39:56;16.70;99.90
57753;DHT22;43583;53.132;6.574;2023-07-30T05:42:22;16.80;99.90
57753;DHT22;43583;53.132;6.574;2023-07-30T05:44:47;16.90;99.90
57753;DHT22;43583;53.132;6.574;2023-07-30T05:47:13;16.90;99.90
57753;DHT22;43583;53.132;6.574;2023-07-30T05:49:38;17.00;99.90
57753;DHT22;43583;53.132;6.574;2023-07-30T05:52:05;17.00;99.90
57753;DHT22;43583;53.132;6.574;2023-07-30T05:54:30;17.10;99.90
57753;DHT22;43583;53.132;6.574;2023-07-30T05:56:56;17.10;99.90
57753;DHT22;43583;53.132;6.574;2023-07-30T05:59:21;17.20;99.90
57753;DHT22;43583;53.132;6.574;2023-07-30T06:01:47;17.20;99.90
57753;DHT22;43583;53.132;6.574;2023-07-30T06:04:12;17.20;99.90
57753;DHT22;43583;53.132;6.574;2023-07-30T06:06:38;17.30;99.90
57753;DHT22;43583;53.132;6.574;2023-07-30T06:09:04;17.20;99.90
57753;DHT22;43583;53.132;6.574;2023-07-30T06:11:29;17.20;99.90
57753;DHT22;43583;53.132;6.574;2023-07-30T06:13:55;17.30;99.90
57753;DHT22;43583;53.132;6.574;2023-07-30T06:16:20;17.30;99.90
57753;DHT22;43583;53.132;6.574;2023-07-30T06:18:46;17.30;99.90
57753;DHT22;43583;53.132;6.574;2023-07-30T06:21:12;17.30;99.90
57753;DHT22;43583;53.132;6.574;2023-07-30T06:23:38;17.40;99.90
57753;DHT22;43583;53.132;6.574;2023-07-30T06:26:03;17.40;99.90
57753;DHT22;43583;53.132;6.574;2023-07-30T06:28:29;17.40;99.90
57753;DHT22;43583;53.132;6.574;2023-07-30T06:30:54;17.30;99.90
57753;DHT22;43583;53.132;6.574;2023-07-30T06:33:20;17.30;99.90
57753;DHT22;43583;53.132;6.574;2023-07-30T06:35:46;17.30;99.90
57753;DHT22;43583;53.132;6.574;2023-07-30T06:38:11;17.30;99.90
57753;DHT22;43583;53.132;6.574;2023-07-30T06:40:37;17.40;99.90
57753;DHT22;43583;53.132;6.574;2023-07-30T06:43:02;17.50;99.90
57753;DHT22;43583;53.132;6.574;2023-07-30T06:45:28;17.60;99.90
57753;DHT22;43583;53.132;6.574;2023-07-30T06:47:53;17.70;99.90
57753;DHT22;43583;53.132;6.574;2023-07-30T06:50:19;17.80;99.90
57753;DHT22;43583;53.132;6.574;2023-07-30T06:52:44;17.90;99.90
57753;DHT22;43583;53.132;6.574;2023-07-30T06:55:10;18.20;99.90
57753;DHT22;43583;53.132;6.574;2023-07-30T06:57:36;18.50;99.90
57753;DHT22;43583;53.132;6.574;2023-07-30T07:00:02;18.80;99.90
57753;DHT22;43583;53.132;6.574;2023-07-30T07:02:28;19.00;99.90
57753;DHT22;43583;53.132;6.574;2023-07-30T07:04:54;19.40;99.90
57753;DHT22;43583;53.132;6.574;2023-07-30T07:07:20;19.80;99.90
57753;DHT22;43583;53.132;6.574;2023-07-30T07:09:45;20.30;99.90
57753;DHT22;43583;53.132;6.574;2023-07-30T07:12:11;20.70;99.90
57753;DHT22;43583;53.132;6.574;2023-07-30T07:14:36;21.00;99.90
57753;DHT22;43583;53.132;6.574;2023-07-30T07:17:02;21.30;99.90
57753;DHT22;43583;53.132;6.574;2023-07-30T07:19:28;21.40;99.90
57753;DHT22;43583;53.132;6.574;2023-07-30T07:21:53;21.80;99.90
57753;DHT22;43583;53.132;6.574;2023-07-30T07:24:19;22.10;99.90
57753;DHT22;43583;53.132;6.574;2023-07-30T07:26:44;22.10;99.90
57753;DHT22;43583;53.132;6.574;2023-07-30T07:29:10;21.80;99.90
57753;DHT22;43583;53.132;6.574;2023-07-30T07:31:36;22.10;99.90
57753;DHT22;43583;53.132;6.574;2023-07-30T07:34:01;23.00;99.90
57753;DHT22;43583;53.132;6.574;2023-07-30T07:36:27;24.40;99.90
57753;DHT22;43583;53.132;6.574;2023-07-30T07:38:52;25.40;99.90
57753;DHT22;43583;53.132;6.574;2023-07-30T07:41:18;25.90;99.90
57753;DHT22;43583;53.132;6.574;2023-07-30T07:43:45;26.20;99.90
57753;DHT22;43583;53.132;6.574;2023-07-30T07:46:11;27.10;99.90
57753;DHT22;43583;53.132;6.574;2023-07-30T07:48:43;27.40;99.90
57753;DHT22;43583;53.132;6.574;2023-07-30T07:51:10;27.70;99.90
57753;DHT22;43583;53.132;6.574;2023-07-30T07:53:36;27.70;99.90
57753;DHT22;43583;53.132;6.574;2023-07-30T07:56:02;28.00;99.90
57753;DHT22;43583;53.132;6.574;2023-07-30T07:58:28;28.20;99.90
57753;DHT22;43583;53.132;6.574;2023-07-30T08:00:55;28.70;99.90
57753;DHT22;43583;53.132;6.574;2023-07-30T08:03:21;28.40;99.90
57753;DHT22;43583;53.132;6.574;2023-07-30T08:05:47;27.70;99.90
57753;DHT22;43583;53.132;6.574;2023-07-30T08:08:13;26.40;99.90
57753;DHT22;43583;53.132;6.574;2023-07-30T08:10:39;25.30;99.90
57753;DHT22;43583;53.132;6.574;2023-07-30T08:13:05;24.30;99.90
57753;DHT22;43583;53.132;6.574;2023-07-30T08:15:32;23.40;99.90
57753;DHT22;43583;53.132;6.574;2023-07-30T08:17:58;22.70;99.90
57753;DHT22;43583;53.132;6.574;2023-07-30T08:20:23;22.30;99.90
57753;DHT22;43583;53.132;6.574;2023-07-30T08:22:49;21.90;99.90
57753;DHT22;43583;53.132;6.574;2023-07-30T08:25:14;21.30;99.90
57753;DHT22;43583;53.132;6.574;2023-07-30T08:27:40;20.90;99.90
57753;DHT22;43583;53.132;6.574;2023-07-30T08:30:06;20.60;99.90
57753;DHT22;43583;53.132;6.574;2023-07-30T08:32:33;20.30;99.90
57753;DHT22;43583;53.132;6.574;2023-07-30T08:34:58;20.20;99.90
57753;DHT22;43583;53.132;6.574;2023-07-30T08:37:24;20.00;99.90
57753;DHT22;43583;53.132;6.574;2023-07-30T08:39:51;19.90;99.90
57753;DHT22;43583;53.132;6.574;2023-07-30T08:42:17;19.80;99.90
57753;DHT22;43583;53.132;6.574;2023-07-30T08:44:43;19.70;99.90
57753;DHT22;43583;53.132;6.574;2023-07-30T08:47:08;19.50;99.90
57753;DHT22;43583;53.132;6.574;2023-07-30T08:49:34;19.40;99.90
57753;DHT22;43583;53.132;6.574;2023-07-30T08:52:01;19.30;99.90
57753;DHT22;43583;53.132;6.574;2023-07-30T08:54:30;19.20;99.90
57753;DHT22;43583;53.132;6.574;2023-07-30T08:56:56;19.20;99.90
57753;DHT22;43583;53.132;6.574;2023-07-30T08:59:22;19.30;99.90
57753;DHT22;43583;53.132;6.574;2023-07-30T09:01:51;19.40;99.90
57753;DHT22;43583;53.132;6.574;2023-07-30T09:04:17;19.60;99.90
57753;DHT22;43583;53.132;6.574;2023-07-30T09:06:47;19.80;99.90
57753;DHT22;43583;53.132;6.574;2023-07-30T09:09:13;20.10;99.90
57753;DHT22;43583;53.132;6.574;2023-07-30T09:11:39;20.50;99.90
57753;DHT22;43583;53.132;6.574;2023-07-30T09:14:06;20.80;99.90
57753;DHT22;43583;53.132;6.574;2023-07-30T09:16:32;21.00;99.90
57753;DHT22;43583;53.132;6.574;2023-07-30T09:18:57;21.00;99.90
57753;DHT22;43583;53.132;6.574;2023-07-30T09:21:30;20.80;99.90
57753;DHT22;43583;53.132;6.574;2023-07-30T09:23:56;20.70;99.90
57753;DHT22;43583;53.132;6.574;2023-07-30T09:26:22;20.50;99.90
57753;DHT22;43583;53.132;6.574;2023-07-30T09:28:48;20.20;99.90
57753;DHT22;43583;53.132;6.574;2023-07-30T09:31:13;20.00;99.90
57753;DHT22;43583;53.132;6.574;2023-07-30T09:33:42;19.60;99.90
57753;DHT22;43583;53.132;6.574;2023-07-30T09:36:08;19.40;99.90
57753;DHT22;43583;53.132;6.574;2023-07-30T09:38:41;19.20;99.90
57753;DHT22;43583;53.132;6.574;2023-07-30T09:41:08;19.00;99.90
57753;DHT22;43583;53.132;6.574;2023-07-30T09:43:35;19.00;99.90
57753;DHT22;43583;53.132;6.574;2023-07-30T09:46:02;19.00;99.90
57753;DHT22;43583;53.132;6.574;2023-07-30T09:48:30;19.00;99.90
57753;DHT22;43583;53.132;6.574;2023-07-30T09:50:59;19.10;99.90
57753;DHT22;43583;53.132;6.574;2023-07-30T09:53:25;19.20;99.90
57753;DHT22;43583;53.132;6.574;2023-07-30T09:55:52;19.40;99.90
57753;DHT22;43583;53.132;6.574;2023-07-30T09:58:17;19.60;99.90
57753;DHT22;43583;53.132;6.574;2023-07-30T10:00:44;19.80;99.90
57753;DHT22;43583;53.132;6.574;2023-07-30T10:03:12;19.90;99.90
57753;DHT22;43583;53.132;6.574;2023-07-30T10:05:41;20.00;99.90
57753;DHT22;43583;53.132;6.574;2023-07-30T10:08:10;19.90;99.90
57753;DHT22;43583;53.132;6.574;2023-07-30T10:10:37;19.90;99.90
57753;DHT22;43583;53.132;6.574;2023-07-30T10:13:06;19.80;99.90
57753;DHT22;43583;53.132;6.574;2023-07-30T10:15:39;19.90;99.90
57753;DHT22;43583;53.132;6.574;2023-07-30T10:18:05;19.90;99.90
57753;DHT22;43583;53.132;6.574;2023-07-30T10:20:31;20.00;99.90
57753;DHT22;43583;53.132;6.574;2023-07-30T10:22:59;20.10;99.90
57753;DHT22;43583;53.132;6.574;2023-07-30T10:25:30;20.20;99.90
57753;DHT22;43583;53.132;6.574;2023-07-30T10:27:56;20.60;99.90
57753;DHT22;43583;53.132;6.574;2023-07-30T10:30:30;21.00;99.90
57753;DHT22;43583;53.132;6.574;2023-07-30T10:35:38;21.50;99.90
57753;DHT22;43583;53.132;6.574;2023-07-30T10:38:17;21.30;99.90
57753;DHT22;43583;53.132;6.574;2023-07-30T10:43:28;20.50;99.90
57753;DHT22;43583;53.132;6.574;2023-07-30T10:45:53;20.20;99.90
57753;DHT22;43583;53.132;6.574;2023-07-30T10:48:19;20.00;99.90
57753;DHT22;43583;53.132;6.574;2023-07-30T10:50:54;20.20;99.90
57753;DHT22;43583;53.132;6.574;2023-07-30T10:53:19;20.40;99.90
57753;DHT22;43583;53.132;6.574;2023-07-30T10:55:45;20.80;99.90
57753;DHT22;43583;53.132;6.574;2023-07-30T10:58:11;21.40;99.90
57753;DHT22;43583;53.132;6.574;2023-07-30T11:00:37;22.00;99.90
57753;DHT22;43583;53.132;6.574;2023-07-30T11:03:03;22.50;99.90
57753;DHT22;43583;53.132;6.574;2023-07-30T11:05:28;22.80;99.90
57753;DHT22;43583;53.132;6.574;2023-07-30T11:07:55;23.00;99.90
57753;DHT22;43583;53.132;6.574;2023-07-30T11:10:21;23.10;99.90
57753;DHT22;43583;53.132;6.574;2023-07-30T11:12:49;23.10;99.90
57753;DHT22;43583;53.132;6.574;2023-07-30T11:15:18;23.10;99.90
57753;DHT22;43583;53.132;6.574;2023-07-30T11:17:43;22.90;99.90
57753;DHT22;43583;53.132;6.574;2023-07-30T11:20:26;22.60;99.90
57753;DHT22;43583;53.132;6.574;2023-07-30T11:22:55;22.10;99.90
57753;DHT22;43583;53.132;6.574;2023-07-30T11:25:20;21.80;99.90
57753;DHT22;43583;53.132;6.574;2023-07-30T11:27:50;21.50;99.90
57753;DHT22;43583;53.132;6.574;2023-07-30T11:30:17;21.20;99.90
57753;DHT22;43583;53.132;6.574;2023-07-30T11:32:43;21.20;99.90
57753;DHT22;43583;53.132;6.574;2023-07-30T11:35:14;21.10;99.90
57753;DHT22;43583;53.132;6.574;2023-07-30T11:37:41;21.40;99.90
57753;DHT22;43583;53.132;6.574;2023-07-30T11:40:11;21.90;99.90
57753;DHT22;43583;53.132;6.574;2023-07-30T11:42:37;22.30;99.90
57753;DHT22;43583;53.132;6.574;2023-07-30T11:45:20;22.20;99.90
57753;DHT22;43583;53.132;6.574;2023-07-30T11:47:47;22.10;99.90
57753;DHT22;43583;53.132;6.574;2023-07-30T11:50:12;21.90;99.90
57753;DHT22;43583;53.132;6.574;2023-07-30T11:52:54;21.70;99.90
57753;DHT22;43583;53.132;6.574;2023-07-30T11:55:20;21.50;99.90
57753;DHT22;43583;53.132;6.574;2023-07-30T11:57:46;21.80;99.90
57753;DHT22;43583;53.132;6.574;2023-07-30T12:00:12;22.20;99.90
57753;DHT22;43583;53.132;6.574;2023-07-30T12:02:38;22.60;99.90
57753;DHT22;43583;53.132;6.574;2023-07-30T12:05:04;22.70;99.90
57753;DHT22;43583;53.132;6.574;2023-07-30T12:07:32;22.50;99.90
57753;DHT22;43583;53.132;6.574;2023-07-30T12:10:11;22.30;99.90
57753;DHT22;43583;53.132;6.574;2023-07-30T12:12:51;22.10;99.90
57753;DHT22;43583;53.132;6.574;2023-07-30T12:15:18;22.00;99.90
57753;DHT22;43583;53.132;6.574;2023-07-30T12:17:44;21.90;99.90
57753;DHT22;43583;53.132;6.574;2023-07-30T12:20:11;21.50;99.90
57753;DHT22;43583;53.132;6.574;2023-07-30T12:22:36;21.10;99.90
57753;DHT22;43583;53.132;6.574;2023-07-30T12:25:04;20.60;99.90
57753;DHT22;43583;53.132;6.574;2023-07-30T12:27:30;20.20;99.90
57753;DHT22;43583;53.132;6.574;2023-07-30T12:29:56;19.80;99.90
57753;DHT22;43583;53.132;6.574;2023-07-30T12:32:21;19.50;99.90
57753;DHT22;43583;53.132;6.574;2023-07-30T12:34:47;19.40;99.90
57753;DHT22;43583;53.132;6.574;2023-07-30T12:37:12;19.70;99.90
57753;DHT22;43583;53.132;6.574;2023-07-30T12:39:38;20.20;99.90
57753;DHT22;43583;53.132;6.574;2023-07-30T12:42:04;20.60;99.90
57753;DHT22;43583;53.132;6.574;2023-07-30T12:44:29;21.00;99.90
57753;DHT22;43583;53.132;6.574;2023-07-30T12:46:55;21.40;99.90
57753;DHT22;43583;53.132;6.574;2023-07-30T12:49:20;21.60;99.90
57753;DHT22;43583;53.132;6.574;2023-07-30T12:51:46;21.80;99.90
57753;DHT22;43583;53.132;6.574;2023-07-30T12:54:11;22.00;99.90
57753;DHT22;43583;53.132;6.574;2023-07-30T12:56:37;22.30;99.90
57753;DHT22;43583;53.132;6.574;2023-07-30T12:59:02;22.60;99.90
57753;DHT22;43583;53.132;6.574;2023-07-30T13:01:28;22.60;99.90
57753;DHT22;43583;53.132;6.574;2023-07-30T13:03:54;22.80;99.90
57753;DHT22;43583;53.132;6.574;2023-07-30T13:06:20;23.00;99.90
57753;DHT22;43583;53.132;6.574;2023-07-30T13:08:46;23.40;99.90
57753;DHT22;43583;53.132;6.574;2023-07-30T13:11:12;23.60;99.90
57753;DHT22;43583;53.132;6.574;2023-07-30T13:13:38;23.80;99.90
57753;DHT22;43583;53.132;6.574;2023-07-30T13:16:03;23.70;99.90
57753;DHT22;43583;53.132;6.574;2023-07-30T13:18:29;23.40;99.90
57753;DHT22;43583;53.132;6.574;2023-07-30T13:20:55;23.10;99.90
57753;DHT22;43583;53.132;6.574;2023-07-30T13:23:20;22.80;99.90
57753;DHT22;43583;53.132;6.574;2023-07-30T13:25:46;22.50;99.90
57753;DHT22;43583;53.132;6.574;2023-07-30T13:28:11;22.00;99.90
57753;DHT22;43583;53.132;6.574;2023-07-30T13:30:37;21.80;99.90
57753;DHT22;43583;53.132;6.574;2023-07-30T13:33:03;21.80;99.90
57753;DHT22;43583;53.132;6.574;2023-07-30T13:35:28;21.80;99.90
57753;DHT22;43583;53.132;6.574;2023-07-30T13:37:54;21.80;99.90
57753;DHT22;43583;53.132;6.574;2023-07-30T13:40:19;21.90;99.90
57753;DHT22;43583;53.132;6.574;2023-07-30T13:42:45;21.80;99.90
57753;DHT22;43583;53.132;6.574;2023-07-30T13:45:10;21.70;99.90
57753;DHT22;43583;53.132;6.574;2023-07-30T13:47:36;21.50;99.90
57753;DHT22;43583;53.132;6.574;2023-07-30T13:50:01;21.60;99.90
57753;DHT22;43583;53.132;6.574;2023-07-30T13:52:27;21.80;99.90
57753;DHT22;43583;53.132;6.574;2023-07-30T13:54:52;21.90;99.90
57753;DHT22;43583;53.132;6.574;2023-07-30T13:57:24;22.00;99.90
57753;DHT22;43583;53.132;6.574;2023-07-30T13:59:51;22.10;99.90
57753;DHT22;43583;53.132;6.574;2023-07-30T14:02:16;21.90;99.90
57753;DHT22;43583;53.132;6.574;2023-07-30T14:04:42;21.90;99.90
57753;DHT22;43583;53.132;6.574;2023-07-30T14:07:07;21.70;99.90
57753;DHT22;43583;53.132;6.574;2023-07-30T14:09:33;21.70;99.90
57753;DHT22;43583;53.132;6.574;2023-07-30T14:12:02;21.60;99.90
57753;DHT22;43583;53.132;6.574;2023-07-30T14:14:28;21.40;99.90
57753;DHT22;43583;53.132;6.574;2023-07-30T14:16:53;21.30;99.90
57753;DHT22;43583;53.132;6.574;2023-07-30T14:19:19;21.10;99.90
57753;DHT22;43583;53.132;6.574;2023-07-30T14:21:45;20.80;99.90
57753;DHT22;43583;53.132;6.574;2023-07-30T14:24:11;20.60;99.90
57753;DHT22;43583;53.132;6.574;2023-07-30T14:26:36;20.30;99.90
57753;DHT22;43583;53.132;6.574;2023-07-30T14:29:02;20.00;99.90
57753;DHT22;43583;53.132;6.574;2023-07-30T14:31:27;19.90;99.90
57753;DHT22;43583;53.132;6.574;2023-07-30T14:33:53;20.00;99.90
57753;DHT22;43583;53.132;6.574;2023-07-30T14:36:18;20.00;99.90
57753;DHT22;43583;53.132;6.574;2023-07-30T14:38:44;20.10;99.90
57753;DHT22;43583;53.132;6.574;2023-07-30T14:41:09;19.90;99.90
57753;DHT22;43583;53.132;6.574;2023-07-30T14:43:36;20.00;99.90
57753;DHT22;43583;53.132;6.574;2023-07-30T14:46:02;20.20;99.90
57753;DHT22;43583;53.132;6.574;2023-07-30T14:48:28;20.20;99.90
57753;DHT22;43583;53.132;6.574;2023-07-30T14:50:54;20.10;99.90
57753;DHT22;43583;53.132;6.574;2023-07-30T14:53:19;19.90;99.90
57753;DHT22;43583;53.132;6.574;2023-07-30T14:55:45;19.80;99.90
57753;DHT22;43583;53.132;6.574;2023-07-30T14:58:10;19.60;99.90
57753;DHT22;43583;53.132;6.574;2023-07-30T15:00:37;19.30;99.90
57753;DHT22;43583;53.132;6.574;2023-07-30T15:03:02;19.00;99.90
57753;DHT22;43583;53.132;6.574;2023-07-30T15:05:30;18.70;99.90
57753;DHT22;43583;53.132;6.574;2023-07-30T15:07:55;18.50;99.90
57753;DHT22;43583;53.132;6.574;2023-07-30T15:10:21;18.40;99.90
57753;DHT22;43583;53.132;6.574;2023-07-30T15:12:46;18.50;99.90
57753;DHT22;43583;53.132;6.574;2023-07-30T15:15:12;18.70;99.90
57753;DHT22;43583;53.132;6.574;2023-07-30T15:17:38;18.80;99.90
57753;DHT22;43583;53.132;6.574;2023-07-30T15:20:04;19.10;99.90
57753;DHT22;43583;53.132;6.574;2023-07-30T15:22:30;19.20;99.90
57753;DHT22;43583;53.132;6.574;2023-07-30T15:24:55;19.20;99.90
57753;DHT22;43583;53.132;6.574;2023-07-30T15:27:21;19.40;99.90
57753;DHT22;43583;53.132;6.574;2023-07-30T15:29:46;19.60;99.90